Weather at Montreal International (Mirabel) Airport

Public forecast

Using degrees Celsius for public forecast. Weather courtesy of forecast.io.

Current aviation weather report (METAR) for Montreal International (Mirabel) Airport

Retrieved 2021/01/26 00:00 UTC (39 minutes ago):

CYMX 260000Z 25006KT 25SM BKN048 M09/M13 A3011 RMK SC7 SLP206

Aviation forecast (TAF) for Montreal International (Mirabel) Airport

Retrieved 2021-01-26 00:33 UTC (6 minutes ago):

TAF CYMX 252338Z 2600/2624 VRB03KT P6SM BKN025 TEMPO 2600/2609 BKN020 FM260900 03005KT P6SM SCT015 TEMPO 2609/2616 BKN015 FM261600 05008KT P6SM SCT020 BKN140 FM262200 05010KT P6SM -SN SCT020 OVC060 RMK NXT FCST BY 260600Z